Time;durP1;ratioP1;P1;durP2;ratioP2;P2;SDS_P1;SDS_P2;PMS_P1;PMS_P2;Temp;Humidity;BMP_temperature;BMP_pressure;BME280_temperature;BME280_humidity;BME280_pressure;Samples;Min_cycle;Max_cycle;Signal;HPM_P1;HPM_P2
2022/08/14 18:35:16;;;;;;;8.05;5.00;;;26.30;96.70;;;;;;5078988;23;20069;-82
2022/08/14 18:37:44;;;;;;;5.82;4.10;;;26.20;97.10;;;;;;4994693;28;20173;-82
2022/08/14 18:40:18;;;;;;;5.60;5.07;;;26.10;97.30;;;;;;4993732;28;20120;-82
2022/08/14 18:42:50;;;;;;;4.57;4.18;;;26.00;97.70;;;;;;4993925;28;20049;-82
2022/08/14 18:45:21;;;;;;;6.63;4.50;;;25.90;97.80;;;;;;4994182;28;20192;-82
2022/08/14 18:48:05;;;;;;;5.07;4.50;;;25.90;98.00;;;;;;4995426;28;20053;-82
2022/08/14 18:50:31;;;;;;;7.03;4.57;;;25.90;98.10;;;;;;4994283;28;20498;-82
2022/08/14 18:53:08;;;;;;;5.82;5.03;;;25.80;99.00;;;;;;4995544;28;20038;-82
2022/08/14 18:55:34;;;;;;;7.22;5.05;;;25.70;99.50;;;;;;4993758;28;20046;-82
2022/08/14 18:58:00;;;;;;;7.72;5.22;;;25.60;99.70;;;;;;4992839;28;20520;-82
2022/08/14 19:00:26;;;;;;;11.73;6.10;;;25.50;99.90;;;;;;4994236;28;20051;-82
2022/08/14 19:02:52;;;;;;;13.70;5.55;;;25.40;99.90;;;;;;4995060;28;20077;-82
2022/08/14 19:05:51;;;;;;;11.50;6.15;;;25.30;99.90;;;;;;4992451;28;20374;-82
2022/08/14 19:08:21;;;;;;;9.20;5.50;;;25.20;99.90;;;;;;4951311;28;20058;-82
2022/08/14 19:10:50;;;;;;;14.23;5.45;;;25.10;99.90;;;;;;4995179;28;20053;-82
2022/08/14 19:13:28;;;;;;;7.80;5.53;;;25.00;99.90;;;;;;4993213;28;20053;-82
2022/08/14 19:16:09;;;;;;;11.35;6.32;;;25.00;99.90;;;;;;4995089;28;20049;-82
2022/08/14 19:18:47;;;;;;;16.08;6.15;;;24.90;99.90;;;;;;4992767;28;20050;-82
2022/08/14 19:21:33;;;;;;;10.15;6.03;;;24.80;99.90;;;;;;4977886;28;20541;-84
2022/08/14 19:24:23;;;;;;;12.50;6.15;;;24.80;99.90;;;;;;4994393;28;20078;-83
2022/08/14 19:26:51;;;;;;;12.57;5.90;;;24.70;99.90;;;;;;4976777;28;20035;-82
2022/08/14 19:29:33;;;;;;;8.20;5.80;;;24.50;99.90;;;;;;4977126;28;20125;-84
2022/08/14 19:32:02;;;;;;;13.38;6.15;;;24.40;99.90;;;;;;4993678;28;20054;-83
2022/08/14 19:34:41;;;;;;;9.30;6.05;;;24.30;99.90;;;;;;4957095;28;20399;-83
2022/08/14 19:37:14;;;;;;;6.57;5.97;;;24.20;99.90;;;;;;4974589;28;20050;-83
2022/08/14 19:39:58;;;;;;;7.68;5.72;;;24.10;99.90;;;;;;4976961;28;20169;-83
2022/08/14 19:42:35;;;;;;;7.07;6.07;;;24.10;99.90;;;;;;4993748;28;20379;-83
2022/08/14 19:45:01;;;;;;;6.28;5.68;;;24.10;99.90;;;;;;4977113;28;20050;-83
2022/08/14 19:47:35;;;;;;;8.07;5.18;;;24.00;99.90;;;;;;4993253;28;20038;-84
2022/08/14 19:50:02;;;;;;;6.10;5.53;;;24.00;99.90;;;;;;4993134;28;20046;-84
2022/08/14 19:52:31;;;;;;;10.90;5.50;;;23.90;99.90;;;;;;4994170;28;20042;-84
2022/08/14 19:54:58;;;;;;;11.27;5.68;;;23.90;99.90;;;;;;4993893;28;20078;-83
2022/08/14 19:57:26;;;;;;;6.65;5.90;;;23.90;99.90;;;;;;4977024;28;20064;-84
2022/08/14 20:00:10;;;;;;;7.38;5.68;;;23.80;99.90;;;;;;4993129;28;20043;-84
2022/08/14 20:02:36;;;;;;;;;;;23.80;99.90;;;;;;4992437;28;20370;-83
2022/08/14 20:05:05;;;;;;;12.88;6.10;;;23.70;99.90;;;;;;4976927;28;19922;-83
2022/08/14 20:07:33;;;;;;;7.43;6.30;;;23.70;99.90;;;;;;4992129;28;20038;-84
2022/08/14 20:09:58;;;;;;;7.55;6.13;;;23.70;99.90;;;;;;4993120;28;20042;-84
2022/08/14 20:12:24;;;;;;;8.07;6.05;;;23.70;99.90;;;;;;4992912;28;20478;-84
2022/08/14 20:14:50;;;;;;;11.77;6.65;;;23.70;99.90;;;;;;4991141;28;20553;-84
2022/08/14 20:17:20;;;;;;;8.07;6.45;;;23.60;99.90;;;;;;4992366;28;20042;-84
2022/08/14 20:19:47;;;;;;;12.85;6.78;;;23.60;99.90;;;;;;4992701;28;20490;-84
2022/08/14 20:22:13;;;;;;;10.85;6.68;;;23.50;99.90;;;;;;4975639;28;20058;-85
2022/08/14 20:24:44;;;;;;;7.32;6.63;;;23.40;99.90;;;;;;4976575;28;20537;-84
2022/08/14 20:27:34;;;;;;;6.75;6.13;;;23.40;99.90;;;;;;4992631;28;20101;-84
2022/08/14 20:30:08;;;;;;;7.80;6.57;;;23.40;99.90;;;;;;4990938;28;20038;-84
2022/08/14 20:32:42;;;;;;;6.53;5.93;;;23.30;99.90;;;;;;4992802;28;20400;-85
2022/08/14 20:35:23;;;;;;;11.90;6.75;;;23.20;99.90;;;;;;4992732;28;20050;-86
2022/08/14 20:37:57;;;;;;;21.13;6.75;;;23.20;99.90;;;;;;4991846;28;20125;-85
2022/08/14 20:40:24;;;;;;;12.40;6.32;;;23.10;99.90;;;;;;4976294;28;20042;-85
2022/08/14 20:45:47;;;;;;;11.77;6.35;;;23.00;99.90;;;;;;4992784;28;20400;-85
2022/08/14 20:48:23;;;;;;;9.48;6.63;;;23.00;99.90;;;;;;4992770;28;20056;-85
2022/08/14 20:50:50;;;;;;;7.22;6.47;;;22.90;99.90;;;;;;4975963;28;20041;-84
2022/08/14 20:53:25;;;;;;;7.47;5.80;;;22.80;99.90;;;;;;4977028;28;20109;-84
2022/08/14 20:55:51;;;;;;;9.20;6.25;;;22.80;99.90;;;;;;4992339;28;20454;-84
2022/08/14 20:58:38;;;;;;;9.50;6.50;;;22.80;99.90;;;;;;5008076;28;20569;-85
2022/08/14 21:01:10;;;;;;;13.55;7.10;;;22.80;99.90;;;;;;4992495;28;20132;-84
2022/08/14 21:03:42;;;;;;;9.75;7.05;;;22.70;99.90;;;;;;4993823;28;20057;-84
2022/08/14 21:06:13;;;;;;;10.02;6.05;;;22.70;99.90;;;;;;4975224;28;20042;-85
2022/08/14 21:08:39;;;;;;;8.45;6.60;;;22.60;99.90;;;;;;4976614;28;20054;-85
2022/08/14 21:11:13;;;;;;;9.40;6.43;;;22.60;99.90;;;;;;4975019;28;20548;-85
2022/08/14 21:13:40;;;;;;;7.07;6.38;;;22.50;99.90;;;;;;4977130;28;20389;-85
2022/08/14 21:16:08;;;;;;;8.77;6.57;;;22.50;99.90;;;;;;4992464;28;20038;-85
2022/08/14 21:18:36;;;;;;;8.65;6.10;;;22.50;99.90;;;;;;4991984;28;20097;-86
2022/08/14 21:21:05;;;;;;;9.05;6.78;;;22.40;99.90;;;;;;4992329;28;20068;-85
2022/08/14 21:23:34;;;;;;;11.20;5.75;;;22.40;99.90;;;;;;4976086;28;20042;-84
2022/08/14 21:26:01;;;;;;;10.68;6.13;;;22.40;99.90;;;;;;4975405;28;20077;-84
2022/08/14 21:28:28;;;;;;;7.10;6.28;;;22.30;99.90;;;;;;4978722;28;20482;-84
2022/08/14 21:30:54;;;;;;;16.67;7.35;;;22.20;99.90;;;;;;4995673;28;20039;-84
2022/08/14 21:33:23;;;;;;;7.47;6.35;;;22.20;99.90;;;;;;4979021;28;20152;-84
2022/08/14 21:35:52;;;;;;;8.15;6.75;;;22.20;99.90;;;;;;4995232;28;20054;-84
2022/08/14 21:38:18;;;;;;;5.90;5.35;;;22.10;99.90;;;;;;4996409;28;20133;-85
2022/08/14 21:40:49;;;;;;;7.32;5.95;;;22.10;99.90;;;;;;4995937;28;20455;-84
2022/08/14 21:43:20;;;;;;;9.45;6.15;;;22.00;99.90;;;;;;4997134;28;20035;-84
2022/08/14 21:45:54;;;;;;;9.70;6.35;;;22.00;99.90;;;;;;4995109;28;20058;-85
2022/08/14 21:48:30;;;;;;;9.57;6.60;;;22.00;99.90;;;;;;4995183;28;20073;-85
2022/08/14 21:50:58;;;;;;;8.60;6.00;;;22.00;99.90;;;;;;4979071;28;20445;-85
2022/08/14 21:53:28;;;;;;;6.38;5.55;;;22.00;99.90;;;;;;4995704;28;20053;-85
2022/08/14 21:55:54;;;;;;;7.15;6.20;;;21.90;99.90;;;;;;4979101;28;20050;-85
2022/08/14 21:58:21;;;;;;;8.40;6.25;;;21.90;99.90;;;;;;4995021;28;20109;-85
2022/08/14 22:00:47;;;;;;;6.03;5.53;;;21.90;99.90;;;;;;4994317;28;20050;-84
2022/08/14 22:03:17;;;;;;;6.97;5.53;;;21.80;99.90;;;;;;4995124;28;20149;-85
2022/08/14 22:05:49;;;;;;;7.13;5.88;;;21.80;99.90;;;;;;4995752;28;20046;-84
2022/08/14 22:08:17;;;;;;;9.45;5.75;;;21.80;99.90;;;;;;4994587;28;20513;-84
2022/08/14 22:10:47;;;;;;;11.48;5.90;;;21.80;99.90;;;;;;4994688;28;20038;-85
2022/08/14 22:13:15;;;;;;;10.85;6.20;;;21.80;99.90;;;;;;4996243;28;20498;-85
2022/08/14 22:15:42;;;;;;;7.72;6.30;;;21.80;99.90;;;;;;4994991;28;20226;-84
2022/08/14 22:18:11;;;;;;;7.18;5.75;;;21.70;99.90;;;;;;4995805;28;20061;-84
2022/08/14 22:20:37;;;;;;;12.77;7.00;;;21.70;99.90;;;;;;4994509;28;20046;-84
2022/08/14 22:23:07;;;;;;;8.57;6.70;;;21.60;99.90;;;;;;4995320;28;20050;-84
2022/08/14 22:25:35;;;;;;;8.13;6.72;;;21.50;99.90;;;;;;4995683;28;20054;-84
2022/08/14 22:28:06;;;;;;;11.40;6.70;;;21.50;99.90;;;;;;4995020;28;20046;-84
2022/08/14 22:30:33;;;;;;;12.27;6.72;;;21.50;99.90;;;;;;4993890;28;20046;-84
2022/08/14 22:32:59;;;;;;;8.93;7.20;;;21.50;99.90;;;;;;4994502;28;20038;-84
2022/08/14 22:35:26;;;;;;;7.97;7.18;;;21.40;99.90;;;;;;4993765;28;20434;-84
2022/08/14 22:37:53;;;;;;;6.70;6.10;;;21.40;99.90;;;;;;4994201;28;20545;-84
2022/08/14 22:40:19;;;;;;;7.50;6.47;;;21.40;99.90;;;;;;4994404;28;20493;-84
2022/08/14 22:42:45;;;;;;;7.57;6.70;;;21.30;99.90;;;;;;4994551;28;20050;-85
2022/08/14 22:45:11;;;;;;;7.10;6.40;;;21.40;99.90;;;;;;4995567;28;20054;-85
2022/08/14 22:47:38;;;;;;;7.18;6.47;;;21.30;99.90;;;;;;4994284;28;20052;-84
2022/08/14 22:50:07;;;;;;;7.63;6.90;;;21.30;99.90;;;;;;4993348;28;20555;-85
2022/08/14 22:52:32;;;;;;;7.25;6.65;;;21.30;99.90;;;;;;4994207;28;20055;-85
2022/08/14 22:54:58;;;;;;;7.43;6.72;;;21.30;99.90;;;;;;4994357;28;20039;-84
2022/08/14 22:57:25;;;;;;;8.68;7.28;;;21.20;99.90;;;;;;4993256;28;20049;-84
2022/08/14 22:59:51;;;;;;;9.52;7.10;;;21.10;99.90;;;;;;4978080;28;20121;-84
2022/08/14 23:02:24;;;;;;;8.68;7.03;;;21.00;99.90;;;;;;4995203;28;20445;-84
2022/08/14 23:04:50;;;;;;;7.60;6.90;;;21.00;99.90;;;;;;4993049;28;20046;-84
2022/08/14 23:07:16;;;;;;;7.82;6.95;;;21.00;99.90;;;;;;4995127;28;20038;-84
2022/08/14 23:09:42;;;;;;;8.15;7.35;;;21.00;99.90;;;;;;4993620;28;20049;-84
2022/08/14 23:12:12;;;;;;;10.25;7.35;;;21.00;99.90;;;;;;4993059;28;20042;-84
2022/08/14 23:14:39;;;;;;;11.07;7.78;;;21.00;99.90;;;;;;4994970;28;20054;-85
2022/08/14 23:17:06;;;;;;;15.75;7.97;;;20.90;99.90;;;;;;4995147;28;20038;-85
2022/08/14 23:19:33;;;;;;;19.95;8.38;;;20.90;99.90;;;;;;4993943;28;20042;-84
2022/08/14 23:21:59;;;;;;;15.00;7.80;;;20.80;99.90;;;;;;4994829;28;20038;-85
2022/08/14 23:24:26;;;;;;;7.88;6.85;;;20.90;99.90;;;;;;4994189;28;20054;-84
2022/08/14 23:26:53;;;;;;;11.73;7.60;;;20.80;99.90;;;;;;4993950;28;20043;-85
2022/08/14 23:29:20;;;;;;;10.40;7.18;;;20.90;99.90;;;;;;4977729;28;20386;-85
2022/08/14 23:31:49;;;;;;;9.90;7.97;;;20.80;99.90;;;;;;4994077;28;20432;-85
2022/08/14 23:34:18;;;;;;;13.57;6.80;;;20.80;99.90;;;;;;4994237;28;20046;-85
2022/08/14 23:36:47;;;;;;;14.13;7.15;;;20.70;99.90;;;;;;4993538;28;20486;-85
2022/08/14 23:39:15;;;;;;;11.02;7.05;;;20.70;99.90;;;;;;4976541;28;20030;-85
2022/08/14 23:41:44;;;;;;;12.93;8.00;;;20.60;99.90;;;;;;4994425;28;20065;-85
2022/08/14 23:44:11;;;;;;;11.52;8.00;;;20.70;99.90;;;;;;4977072;28;20505;-85
2022/08/14 23:46:37;;;;;;;23.67;7.35;;;20.60;99.90;;;;;;4992972;28;20043;-84
2022/08/14 23:49:04;;;;;;;10.93;7.82;;;20.60;99.90;;;;;;4992960;28;20556;-85
2022/08/14 23:51:31;;;;;;;9.45;7.47;;;20.60;99.90;;;;;;4992878;28;20038;-85
2022/08/14 23:53:58;;;;;;;13.15;8.40;;;20.50;99.90;;;;;;4993495;28;20046;-85
2022/08/14 23:56:29;;;;;;;11.70;8.48;;;20.60;99.90;;;;;;4992869;28;20406;-84
2022/08/14 23:58:55;;;;;;;11.77;8.10;;;20.50;99.90;;;;;;4994523;28;20042;-84
